Vidnoe, Russia
Current Conditions -  °F | °C
As of 11:00 PM on Tuesday 25 Nov 2014 (Local Time) from UUMO Reporting Station
Haze Haze  
Wind Chill: 13°   Ceiling: 300
Heat Index: 21°   Visibility: 3mi
Dew Point: 21°   Wind: 7mph
Humidity: 100%   Direction: 210°SSW
Pressure: 30.53"   Gusts: NA
Location:  55.55°N, 37.71°E
Report Text: UUMO 252000Z 21003MPS 5000 BR OVC003 M06/M06 Q1034 NOSIG RMKQFE760/1013 QBB090 26290050
Loading
Personal Weather Stations






























Interactive Weather Map New forecast layout! Learn more

10-Day Weather Forecast

Advertisements
Track Severe Weather on mobile